createdAt,value
2023-05-08T00:01:30.473Z,94371.09
2023-05-08T00:03:57.463Z,94373.47
2023-05-08T00:06:24.411Z,94368.91
2023-05-08T00:08:51.184Z,94371.16
2023-05-08T00:11:17.848Z,94363.06
2023-05-08T00:13:44.662Z,94365.50
2023-05-08T00:16:12.831Z,94356.41
2023-05-08T00:18:40.065Z,94363.44
2023-05-08T00:21:07.440Z,94366.59
2023-05-08T00:23:34.414Z,94361.84
2023-05-08T00:26:01.332Z,94364.44
2023-05-08T00:28:28.193Z,94359.47
2023-05-08T00:30:55.052Z,94367.47
2023-05-08T00:33:21.856Z,94361.31
2023-05-08T00:35:48.657Z,94367.03
2023-05-08T00:38:15.390Z,94356.56
2023-05-08T00:40:43.100Z,94354.03
2023-05-08T00:43:09.933Z,94359.63
2023-05-08T00:45:38.279Z,94351.94
2023-05-08T00:48:05.501Z,94354.53
2023-05-08T00:50:33.061Z,94347.31
2023-05-08T00:53:01.506Z,94356.84
2023-05-08T00:55:28.521Z,94350.06
2023-05-08T00:57:55.338Z,94348.25
2023-05-08T01:00:23.169Z,94344.00
2023-05-08T01:02:50.180Z,94345.59
2023-05-08T01:05:17.130Z,94349.34
2023-05-08T01:07:44.430Z,94344.88
2023-05-08T01:10:11.478Z,94351.50
2023-05-08T01:12:59.332Z,94350.22
2023-05-08T01:15:54.847Z,94351.59
2023-05-08T01:18:29.704Z,94351.06
2023-05-08T01:21:18.494Z,94354.09
2023-05-08T01:24:10.606Z,94353.53
2023-05-08T01:26:56.006Z,94350.50
2023-05-08T01:29:46.745Z,94358.66
2023-05-08T01:32:24.450Z,94351.66
2023-05-08T01:35:16.484Z,94347.25
2023-05-08T01:37:53.753Z,94360.63
2023-05-08T01:40:40.210Z,94356.22
2023-05-08T01:44:01.492Z,94355.00
2023-05-08T01:46:28.866Z,94347.19
2023-05-08T01:49:13.330Z,94359.03
2023-05-08T01:51:49.766Z,94344.13
2023-05-08T01:54:20.722Z,94349.84
2023-05-08T01:56:48.408Z,94347.53
2023-05-08T01:59:17.714Z,94355.28
2023-05-08T02:01:45.451Z,94350.78
2023-05-08T02:04:12.891Z,94352.91
2023-05-08T02:06:40.227Z,94350.41
2023-05-08T02:09:08.927Z,94349.78
2023-05-08T02:11:36.824Z,94358.78
2023-05-08T02:14:05.088Z,94361.31
2023-05-08T02:16:32.147Z,94352.78
2023-05-08T02:19:00.927Z,94362.75
2023-05-08T02:21:28.114Z,94360.84
2023-05-08T02:23:57.505Z,94367.47
2023-05-08T02:26:24.596Z,94363.44
2023-05-08T02:28:53.446Z,94366.84
2023-05-08T02:31:21.305Z,94366.78
2023-05-08T02:33:49.123Z,94368.00
2023-05-08T02:36:18.332Z,94369.38
2023-05-08T02:38:47.342Z,94361.06
2023-05-08T02:41:14.491Z,94371.28
2023-05-08T02:43:41.789Z,94360.16
2023-05-08T02:46:19.004Z,94361.94
2023-05-08T02:49:05.484Z,94361.16
2023-05-08T02:51:47.513Z,94366.00
2023-05-08T02:54:32.750Z,94372.13
2023-05-08T02:57:22.276Z,94372.56
2023-05-08T03:00:01.619Z,94371.56
2023-05-08T03:02:34.034Z,94370.69
2023-05-08T03:05:06.227Z,94363.84
2023-05-08T03:07:34.608Z,94378.00
2023-05-08T03:10:05.940Z,94373.72
2023-05-08T03:12:34.186Z,94356.78
2023-05-08T03:15:15.440Z,94371.66
2023-05-08T03:17:43.664Z,94375.13
2023-05-08T03:20:13.035Z,94372.69
2023-05-08T03:22:41.049Z,94373.41
2023-05-08T03:25:09.426Z,94366.84
2023-05-08T03:27:37.655Z,94369.97
2023-05-08T03:30:05.731Z,94375.47
2023-05-08T03:32:34.151Z,94369.88
2023-05-08T03:35:01.682Z,94374.53
2023-05-08T03:37:28.895Z,94366.22
2023-05-08T03:39:56.289Z,94373.47
2023-05-08T03:42:26.880Z,94379.47
2023-05-08T03:44:54.487Z,94373.63
2023-05-08T03:47:22.109Z,94380.41
2023-05-08T03:49:50.384Z,94376.59
2023-05-08T03:52:17.478Z,94382.56
2023-05-08T03:54:44.612Z,94377.06
2023-05-08T03:57:11.422Z,94382.00
2023-05-08T04:00:13.774Z,94384.16
2023-05-08T04:02:49.777Z,94392.19
2023-05-08T04:05:38.746Z,94391.41
2023-05-08T04:08:26.109Z,94400.03
2023-05-08T04:11:30.908Z,94398.97
2023-05-08T04:14:05.310Z,94400.34
2023-05-08T04:16:37.804Z,94408.66
2023-05-08T04:19:09.657Z,94413.28
2023-05-08T04:21:37.209Z,94412.47
2023-05-08T04:24:04.937Z,94410.91
2023-05-08T04:26:31.926Z,94414.94
2023-05-08T04:28:58.706Z,94420.22
2023-05-08T04:31:27.098Z,94425.75
2023-05-08T04:33:54.564Z,94428.50
2023-05-08T04:36:21.257Z,94426.06
2023-05-08T04:38:48.021Z,94436.03
2023-05-08T04:41:16.204Z,94437.47
2023-05-08T04:43:42.960Z,94437.28
2023-05-08T04:46:11.006Z,94434.28
2023-05-08T04:48:37.784Z,94431.69
2023-05-08T04:51:04.641Z,94433.50
2023-05-08T04:53:31.389Z,94430.69
2023-05-08T04:55:58.751Z,94438.91
2023-05-08T04:58:25.428Z,94437.84
2023-05-08T05:00:52.225Z,94441.25
2023-05-08T05:03:19.090Z,94445.44
2023-05-08T05:05:45.934Z,94438.66
2023-05-08T05:08:12.794Z,94443.56
2023-05-08T05:10:40.174Z,94445.25
2023-05-08T05:13:07.036Z,94448.56
2023-05-08T05:15:33.973Z,94448.06
2023-05-08T05:18:00.771Z,94449.88
2023-05-08T05:20:27.666Z,94458.59
2023-05-08T05:22:54.394Z,94460.63
2023-05-08T05:25:21.373Z,94451.25
2023-05-08T05:27:48.170Z,94464.53
2023-05-08T05:30:15.351Z,94469.31
2023-05-08T05:32:42.681Z,94460.91
2023-05-08T05:35:10.655Z,94463.16
2023-05-08T05:37:37.860Z,94460.63
2023-05-08T05:40:05.172Z,94462.34
2023-05-08T05:42:32.063Z,94463.94
2023-05-08T05:44:59.280Z,94462.22
2023-05-08T05:47:26.257Z,94464.75
2023-05-08T05:49:53.098Z,94462.72
2023-05-08T05:52:19.989Z,94469.25
2023-05-08T05:54:46.923Z,94462.78
2023-05-08T05:57:14.207Z,94471.59
2023-05-08T05:59:41.425Z,94457.94
2023-05-08T06:02:10.495Z,94468.00
2023-05-08T06:04:37.546Z,94472.75
2023-05-08T06:07:04.356Z,94459.97
2023-05-08T06:09:31.159Z,94469.16
2023-05-08T06:11:57.910Z,94466.19
2023-05-08T06:14:24.821Z,94472.34
2023-05-08T06:16:51.702Z,94460.84
2023-05-08T06:19:18.572Z,94470.47
2023-05-08T06:21:45.555Z,94466.84
2023-05-08T06:24:12.309Z,94464.88
2023-05-08T06:26:39.067Z,94469.72
2023-05-08T06:29:05.903Z,94462.78
2023-05-08T06:31:32.987Z,94476.16
2023-05-08T06:33:59.908Z,94473.06
2023-05-08T06:36:27.383Z,94476.38
2023-05-08T06:38:54.235Z,94481.81
2023-05-08T06:41:21.950Z,94485.94
2023-05-08T06:43:48.884Z,94491.53
2023-05-08T06:46:16.214Z,94490.28
2023-05-08T06:48:43.087Z,94496.31
2023-05-08T06:51:09.885Z,94487.59
2023-05-08T06:53:36.867Z,94489.63
2023-05-08T06:56:03.713Z,94494.50
2023-05-08T06:58:32.302Z,94490.34
2023-05-08T07:01:01.981Z,94497.41
2023-05-08T07:03:28.941Z,94486.59
2023-05-08T07:05:56.210Z,94487.56
2023-05-08T07:08:23.105Z,94489.84
2023-05-08T07:10:49.854Z,94487.94
2023-05-08T07:13:20.209Z,94498.56
2023-05-08T07:15:47.105Z,94492.22
2023-05-08T07:18:14.079Z,94494.94
2023-05-08T07:20:40.955Z,94500.59
2023-05-08T07:23:07.752Z,94500.09
2023-05-08T07:25:34.612Z,94501.59
2023-05-08T07:28:01.569Z,94498.44
2023-05-08T07:30:29.120Z,94495.47
2023-05-08T07:32:56.056Z,94503.66
2023-05-08T07:35:23.077Z,94500.25
2023-05-08T07:37:50.102Z,94503.78
2023-05-08T07:40:17.074Z,94505.88
2023-05-08T07:42:45.100Z,94504.81
2023-05-08T07:45:13.676Z,94512.50
2023-05-08T07:47:52.522Z,94514.34
2023-05-08T07:50:19.730Z,94510.72
2023-05-08T07:52:49.770Z,94509.94
2023-05-08T07:55:17.242Z,94509.94
2023-05-08T07:57:44.504Z,94516.28
2023-05-08T08:00:13.697Z,94514.84
2023-05-08T08:02:41.392Z,94509.13
2023-05-08T08:05:09.263Z,94507.09
2023-05-08T08:07:36.187Z,94512.44
2023-05-08T08:10:06.298Z,94515.94
2023-05-08T08:12:33.377Z,94515.63
2023-05-08T08:15:00.374Z,94515.41
2023-05-08T08:17:28.851Z,94505.63
2023-05-08T08:19:56.582Z,94503.25
2023-05-08T08:22:24.229Z,94509.25
2023-05-08T08:24:54.040Z,94497.69
2023-05-08T08:27:21.768Z,94508.09
2023-05-08T08:29:48.605Z,94504.34
2023-05-08T08:32:15.513Z,94508.09
2023-05-08T08:34:42.514Z,94519.88
2023-05-08T08:37:09.322Z,94509.31
2023-05-08T08:39:36.338Z,94524.72
2023-05-08T08:42:03.900Z,94520.13
2023-05-08T08:44:30.792Z,94507.91
2023-05-08T08:46:59.460Z,94513.41
2023-05-08T08:49:31.777Z,94522.97
2023-05-08T08:52:16.178Z,94521.31
2023-05-08T08:54:44.508Z,94513.25
2023-05-08T08:57:13.102Z,94519.06
2023-05-08T08:59:40.405Z,94517.66
2023-05-08T09:02:12.013Z,94523.69
2023-05-08T09:04:39.231Z,94521.94
2023-05-08T09:07:08.786Z,94531.94
2023-05-08T09:09:41.874Z,94525.50
2023-05-08T09:12:09.071Z,94524.94
2023-05-08T09:14:36.284Z,94518.84
2023-05-08T09:17:03.291Z,94523.22
2023-05-08T09:19:30.279Z,94514.41
2023-05-08T09:22:00.930Z,94514.47
2023-05-08T09:24:53.726Z,94517.59
2023-05-08T09:27:25.030Z,94521.56
2023-05-08T09:30:11.649Z,94518.75
2023-05-08T09:32:40.114Z,94520.53
2023-05-08T09:35:08.574Z,94520.47
2023-05-08T09:37:39.897Z,94523.91
2023-05-08T09:40:21.039Z,94524.44
2023-05-08T09:42:49.164Z,94531.75
2023-05-08T09:45:28.954Z,94526.56
2023-05-08T09:47:56.056Z,94521.72
2023-05-08T09:50:23.201Z,94514.25
2023-05-08T09:52:51.008Z,94518.16
2023-05-08T09:55:18.261Z,94511.50
2023-05-08T09:57:59.229Z,94517.91
2023-05-08T10:00:27.570Z,94511.75
2023-05-08T10:03:00.188Z,94512.06
2023-05-08T10:05:33.038Z,94507.84
2023-05-08T10:08:18.636Z,94521.00
2023-05-08T10:10:45.444Z,94513.13
2023-05-08T10:13:12.462Z,94511.47
2023-05-08T10:15:42.484Z,94511.56
2023-05-08T10:18:11.207Z,94500.97
2023-05-08T10:20:44.512Z,94501.38
2023-05-08T10:23:17.666Z,94500.03
2023-05-08T10:25:48.880Z,94499.84
2023-05-08T10:28:16.913Z,94479.63
2023-05-08T10:30:47.468Z,94489.78
2023-05-08T10:33:15.872Z,94496.63
2023-05-08T10:35:42.685Z,94492.53
2023-05-08T10:38:10.165Z,94488.59
2023-05-08T10:40:38.476Z,94493.00
2023-05-08T10:43:07.391Z,94478.06
2023-05-08T10:45:34.782Z,94473.63
2023-05-08T10:48:26.110Z,94475.91
2023-05-08T10:51:16.501Z,94473.81
2023-05-08T10:54:18.394Z,94469.72
2023-05-08T10:56:45.235Z,94461.75
2023-05-08T10:59:23.949Z,94443.19
2023-05-08T11:01:50.849Z,94445.88
2023-05-08T11:04:23.010Z,94452.41
2023-05-08T11:06:53.293Z,94451.34
2023-05-08T11:09:28.518Z,94445.81
2023-05-08T11:12:16.842Z,94443.47
2023-05-08T11:14:45.042Z,94429.75
2023-05-08T11:17:11.874Z,94428.28
2023-05-08T11:19:39.048Z,94442.50
2023-05-08T11:22:23.575Z,94433.53
2023-05-08T11:24:58.554Z,94436.19
2023-05-08T11:27:36.847Z,94428.28
2023-05-08T11:30:24.264Z,94423.00
2023-05-08T11:33:03.217Z,94414.03
2023-05-08T11:35:47.958Z,94416.16
2023-05-08T11:38:22.553Z,94423.00
2023-05-08T11:40:50.518Z,94419.31
2023-05-08T11:43:38.452Z,94413.00
2023-05-08T11:46:14.790Z,94411.88
2023-05-08T11:48:41.654Z,94403.47
2023-05-08T11:51:08.666Z,94413.47
2023-05-08T11:53:36.682Z,94400.00
2023-05-08T11:56:04.041Z,94397.09
2023-05-08T11:58:31.359Z,94402.34
2023-05-08T12:00:58.238Z,94390.13
2023-05-08T12:03:26.087Z,94391.28
2023-05-08T12:05:56.582Z,94392.50
2023-05-08T12:08:23.809Z,94389.31
2023-05-08T12:10:53.627Z,94391.63
2023-05-08T12:13:22.076Z,94393.09
2023-05-08T12:15:51.006Z,94396.91
2023-05-08T12:18:18.214Z,94389.97
2023-05-08T12:20:45.167Z,94386.75
2023-05-08T12:23:12.310Z,94384.16
2023-05-08T12:25:40.026Z,94384.97
2023-05-08T12:28:07.731Z,94380.84
2023-05-08T12:30:34.748Z,94378.94
2023-05-08T12:33:03.184Z,94371.38
2023-05-08T12:35:30.122Z,94371.03
2023-05-08T12:38:07.212Z,94369.44
2023-05-08T12:40:34.756Z,94367.16
2023-05-08T12:43:03.056Z,94367.22
2023-05-08T12:45:33.473Z,94367.13
2023-05-08T12:48:02.381Z,94365.00
2023-05-08T12:50:30.865Z,94367.59
2023-05-08T12:53:08.161Z,94361.13
2023-05-08T12:55:36.733Z,94351.56
2023-05-08T12:58:15.702Z,94362.00
2023-05-08T13:00:47.723Z,94340.63
2023-05-08T13:03:28.195Z,94346.16
2023-05-08T13:05:57.567Z,94348.66
2023-05-08T13:08:37.835Z,94349.81
2023-05-08T13:11:07.868Z,94346.41
2023-05-08T13:13:36.223Z,94344.69
2023-05-08T13:16:04.806Z,94337.81
2023-05-08T13:18:32.149Z,94343.94
2023-05-08T13:20:59.733Z,94340.56
2023-05-08T13:23:26.566Z,94331.06
2023-05-08T13:25:53.396Z,94334.94
2023-05-08T13:28:20.343Z,94344.38
2023-05-08T13:30:47.150Z,94329.03
2023-05-08T13:33:13.949Z,94325.44
2023-05-08T13:35:40.912Z,94328.00
2023-05-08T13:38:07.766Z,94330.34
2023-05-08T13:40:34.684Z,94334.41
2023-05-08T13:43:01.711Z,94338.66
2023-05-08T13:45:28.508Z,94335.88
2023-05-08T13:47:55.498Z,94341.84
2023-05-08T13:50:22.488Z,94339.16
2023-05-08T13:52:51.099Z,94329.66
2023-05-08T13:55:22.269Z,94325.66
2023-05-08T13:57:49.195Z,94325.69
2023-05-08T14:00:16.471Z,94333.88
2023-05-08T14:02:43.585Z,94333.06
2023-05-08T14:05:10.615Z,94329.03
2023-05-08T14:07:37.463Z,94332.53
2023-05-08T14:10:05.122Z,94325.44
2023-05-08T14:12:36.135Z,94332.81
2023-05-08T14:15:07.107Z,94334.44
2023-05-08T14:17:33.950Z,94328.03
2023-05-08T14:20:00.841Z,94330.78
2023-05-08T14:22:27.888Z,94333.47
2023-05-08T14:24:54.743Z,94334.25
2023-05-08T14:27:21.709Z,94337.31
2023-05-08T14:29:48.563Z,94321.94
2023-05-08T14:32:15.473Z,94322.75
2023-05-08T14:34:42.391Z,94332.66
2023-05-08T14:37:09.204Z,94330.53
2023-05-08T14:39:36.233Z,94329.69
2023-05-08T14:44:33.209Z,94320.56
2023-05-08T14:47:00.061Z,94323.97
2023-05-08T14:49:36.698Z,94319.81
2023-05-08T14:52:06.166Z,94325.06
2023-05-08T14:54:33.615Z,94323.09
2023-05-08T14:57:00.841Z,94320.31
2023-05-08T14:59:27.736Z,94319.84
2023-05-08T15:01:54.700Z,94321.19
2023-05-08T15:04:21.702Z,94326.88
2023-05-08T15:06:48.510Z,94322.69
2023-05-08T15:09:16.962Z,94332.53
2023-05-08T15:11:44.068Z,94331.22
2023-05-08T15:14:11.111Z,94339.94
2023-05-08T15:16:38.021Z,94342.28
2023-05-08T15:19:05.023Z,94339.06
2023-05-08T15:21:31.851Z,94340.66
2023-05-08T15:23:58.932Z,94346.97
2023-05-08T15:26:25.981Z,94341.69
2023-05-08T15:28:52.948Z,94348.03
2023-05-08T15:31:19.711Z,94339.75
2023-05-08T15:33:47.924Z,94347.69
2023-05-08T15:36:14.855Z,94353.47
2023-05-08T15:38:41.994Z,94355.59
2023-05-08T15:41:12.785Z,94341.63
2023-05-08T15:43:41.405Z,94336.91
2023-05-08T15:46:08.190Z,94352.16
2023-05-08T15:48:35.494Z,94351.66
2023-05-08T15:51:02.425Z,94349.78
2023-05-08T15:53:29.168Z,94349.53
2023-05-08T15:55:57.362Z,94346.91
2023-05-08T15:58:24.587Z,94356.09
2023-05-08T16:00:51.798Z,94357.69
2023-05-08T16:03:19.202Z,94359.72
2023-05-08T16:05:47.247Z,94355.75
2023-05-08T16:08:17.696Z,94355.81
2023-05-08T16:10:45.590Z,94357.66
2023-05-08T16:13:13.126Z,94353.91
2023-05-08T16:15:40.902Z,94358.16
2023-05-08T16:18:16.079Z,94358.69
2023-05-08T16:20:45.024Z,94359.16
2023-05-08T16:23:16.429Z,94373.56
2023-05-08T16:25:44.988Z,94361.22
2023-05-08T16:28:12.980Z,94358.59
2023-05-08T16:30:42.036Z,94369.06
2023-05-08T16:33:39.015Z,94373.81
2023-05-08T16:43:44.218Z,94381.09
2023-05-08T16:46:29.267Z,94377.09
2023-05-08T16:49:24.368Z,94385.31
2023-05-08T16:51:55.497Z,94387.31
2023-05-08T16:54:39.987Z,94393.53
2023-05-08T16:57:08.977Z,94400.34
2023-05-08T16:59:40.347Z,94398.75
2023-05-08T17:02:14.461Z,94394.75
2023-05-08T17:04:43.624Z,94406.03
2023-05-08T17:07:59.104Z,94402.38
2023-05-08T17:10:34.600Z,94403.38
2023-05-08T17:13:14.845Z,94414.31
2023-05-08T17:35:52.775Z,94428.09
2023-05-08T17:38:23.124Z,94429.66
2023-05-08T17:40:54.624Z,94430.09
2023-05-08T17:43:23.196Z,94435.88
2023-05-08T17:46:00.935Z,94442.22
2023-05-08T17:48:35.205Z,94445.28
2023-05-08T17:51:12.822Z,94448.78
2023-05-08T17:53:44.444Z,94461.34
2023-05-08T17:56:12.427Z,94450.38
2023-05-08T17:58:39.630Z,94460.22
2023-05-08T18:01:07.827Z,94460.72
2023-05-08T18:03:38.585Z,94465.56
2023-05-08T18:06:06.134Z,94472.31
2023-05-08T18:08:33.858Z,94477.13
2023-05-08T18:11:00.637Z,94477.13
2023-05-08T18:13:27.838Z,94481.78
2023-05-08T18:15:54.715Z,94481.59
2023-05-08T18:18:21.541Z,94486.34
2023-05-08T18:20:48.281Z,94482.38
2023-05-08T18:23:14.867Z,94483.59
2023-05-08T18:25:41.932Z,94494.56
2023-05-08T18:28:08.749Z,94490.19
2023-05-08T18:30:36.633Z,94501.00
2023-05-08T18:33:03.508Z,94492.03
2023-05-08T18:35:30.305Z,94492.59
2023-05-08T18:37:57.162Z,94510.13
2023-05-08T18:40:24.042Z,94507.66
2023-05-08T18:42:51.112Z,94505.28
2023-05-08T18:45:17.828Z,94518.91
2023-05-08T18:47:44.555Z,94515.44
2023-05-08T18:50:11.501Z,94516.72
2023-05-08T18:52:38.407Z,94513.66
2023-05-08T18:55:06.997Z,94524.00
2023-05-08T18:57:33.930Z,94524.78
2023-05-08T19:00:00.814Z,94525.91
2023-05-08T19:02:28.226Z,94524.31
2023-05-08T19:04:55.112Z,94525.41
2023-05-08T19:07:22.472Z,94538.91
2023-05-08T19:09:50.038Z,94540.63
2023-05-08T19:12:18.402Z,94542.53
2023-05-08T19:14:46.925Z,94544.59
2023-05-08T19:17:16.600Z,94545.22
2023-05-08T19:19:44.602Z,94541.72
2023-05-08T19:22:11.629Z,94545.50
2023-05-08T19:24:42.254Z,94545.13
2023-05-08T19:27:15.226Z,94540.13
2023-05-08T19:29:44.885Z,94545.69
2023-05-08T19:32:12.746Z,94554.94
2023-05-08T19:34:41.948Z,94556.13
2023-05-08T19:37:08.991Z,94555.63
2023-05-08T19:39:39.032Z,94552.09
2023-05-08T19:42:15.164Z,94547.88
2023-05-08T19:44:47.573Z,94553.00
2023-05-08T19:47:16.988Z,94555.00
2023-05-08T19:49:49.984Z,94553.41
2023-05-08T19:52:21.851Z,94556.69
2023-05-08T19:54:54.730Z,94554.19
2023-05-08T19:57:27.563Z,94556.09
2023-05-08T20:00:08.765Z,94554.09
2023-05-08T20:02:40.735Z,94550.81
2023-05-08T20:07:38.907Z,94557.22
2023-05-08T20:10:07.859Z,94565.81
2023-05-08T20:12:36.420Z,94563.94
2023-05-08T20:15:06.951Z,94563.38
2023-05-08T20:17:36.642Z,94562.59
2023-05-08T20:20:05.080Z,94563.06
2023-05-08T20:22:33.700Z,94571.91
2023-05-08T20:25:02.784Z,94568.97
2023-05-08T20:27:32.697Z,94564.06
2023-05-08T20:30:00.353Z,94572.69
2023-05-08T20:32:31.229Z,94575.78
2023-05-08T20:34:58.974Z,94572.03
2023-05-08T20:37:25.828Z,94573.72
2023-05-08T20:39:52.531Z,94571.69
2023-05-08T20:42:19.291Z,94572.38
2023-05-08T20:44:46.204Z,94570.56
2023-05-08T20:47:13.873Z,94568.06
2023-05-08T20:49:40.532Z,94564.53
2023-05-08T20:52:07.158Z,94564.53
2023-05-08T20:54:33.747Z,94561.72
2023-05-08T20:57:02.061Z,94551.94
2023-05-08T20:59:28.820Z,94552.50
2023-05-08T21:01:55.864Z,94558.88
2023-05-08T21:04:22.632Z,94565.44
2023-05-08T21:06:50.731Z,94558.31
2023-05-08T21:09:18.881Z,94552.75
2023-05-08T21:11:45.489Z,94547.41
2023-05-08T21:14:12.461Z,94556.38
2023-05-08T21:16:39.083Z,94554.78
2023-05-08T21:19:05.734Z,94562.75
2023-05-08T21:21:32.349Z,94550.00
2023-05-08T21:23:58.961Z,94553.41
2023-05-08T21:26:25.707Z,94557.28
2023-05-08T21:28:53.723Z,94549.66
2023-05-08T21:31:20.610Z,94546.16
2023-05-08T21:33:47.292Z,94552.19
2023-05-08T21:36:14.139Z,94552.84
2023-05-08T21:38:41.542Z,94554.56
2023-05-08T21:41:08.528Z,94555.91
2023-05-08T21:43:36.107Z,94549.53
2023-05-08T21:46:06.760Z,94549.09
2023-05-08T21:48:34.059Z,94541.03
2023-05-08T21:51:00.724Z,94544.91
2023-05-08T21:53:27.493Z,94546.03
2023-05-08T21:55:54.149Z,94544.41
2023-05-08T21:58:20.815Z,94546.84
2023-05-08T22:00:47.420Z,94543.63
2023-05-08T22:03:14.282Z,94545.44
2023-05-08T22:05:40.952Z,94542.63
2023-05-08T22:08:07.619Z,94550.25
2023-05-08T22:10:34.211Z,94544.06
2023-05-08T22:13:01.897Z,94542.91
2023-05-08T22:15:30.582Z,94552.47
2023-05-08T22:17:59.044Z,94550.47
2023-05-08T22:20:25.926Z,94552.13
2023-05-08T22:22:52.633Z,94549.28
2023-05-08T22:25:19.600Z,94546.09
2023-05-08T22:27:46.397Z,94548.22
2023-05-08T22:30:13.500Z,94551.41
2023-05-08T22:32:40.150Z,94542.00
2023-05-08T22:35:07.020Z,94545.16
2023-05-08T22:37:33.710Z,94543.13
2023-05-08T22:40:00.425Z,94541.41
2023-05-08T22:42:27.199Z,94536.41
2023-05-08T22:44:53.865Z,94542.38
2023-05-08T22:47:20.548Z,94533.38
2023-05-08T22:49:48.117Z,94534.44
2023-05-08T22:52:14.783Z,94524.44
2023-05-08T22:54:41.436Z,94520.97
2023-05-08T22:57:08.778Z,94526.84
2023-05-08T22:59:36.396Z,94524.75
2023-05-08T23:02:03.343Z,94521.47
2023-05-08T23:04:30.092Z,94523.38
2023-05-08T23:06:56.930Z,94525.97
2023-05-08T23:09:23.869Z,94518.16
2023-05-08T23:11:51.529Z,94516.94
2023-05-08T23:14:18.321Z,94523.72
2023-05-08T23:16:45.160Z,94516.47
2023-05-08T23:19:12.026Z,94523.91
2023-05-08T23:21:38.912Z,94518.28
2023-05-08T23:24:05.971Z,94508.28
2023-05-08T23:26:32.809Z,94519.16
2023-05-08T23:28:59.614Z,94513.50
2023-05-08T23:31:26.471Z,94515.66
2023-05-08T23:33:53.391Z,94509.53
2023-05-08T23:36:20.184Z,94510.53
2023-05-08T23:38:46.985Z,94504.84
2023-05-08T23:41:14.031Z,94506.88
2023-05-08T23:43:41.134Z,94502.78
2023-05-08T23:46:08.090Z,94498.63
2023-05-08T23:48:34.981Z,94492.94
2023-05-08T23:51:01.755Z,94501.09
2023-05-08T23:53:28.603Z,94488.28
2023-05-08T23:55:55.554Z,94496.25
2023-05-08T23:58:22.402Z,94496.03
